createdAt,value
2018-11-12T00:00:20.501Z,0
2018-11-12T00:01:21.857Z,0
2018-11-12T00:02:22.209Z,0
2018-11-12T00:03:24.014Z,0
2018-11-12T00:04:25.089Z,0
2018-11-12T00:05:25.607Z,0
2018-11-12T00:06:27.406Z,0
2018-11-12T00:07:28.204Z,0
2018-11-12T00:08:28.907Z,0
2018-11-12T00:09:29.425Z,0
2018-11-12T00:10:30.220Z,0
2018-11-12T00:11:31.017Z,0
2018-11-12T00:12:31.536Z,0
2018-11-12T00:13:32.617Z,0
2018-11-12T00:14:32.691Z,0
2018-11-12T00:15:33.486Z,0
2018-11-12T00:16:34.286Z,0
2018-11-12T00:17:35.084Z,0
2018-11-12T00:18:36.240Z,0
2018-11-12T00:19:36.482Z,0
2018-11-12T00:20:38.116Z,0
2018-11-12T00:21:38.656Z,0
2018-11-12T00:22:39.734Z,0
2018-11-12T00:23:39.537Z,0
2018-11-12T00:24:41.059Z,0
2018-11-12T00:25:41.861Z,0
2018-11-12T00:26:43.213Z,0
2018-11-12T00:27:44.581Z,0
2018-11-12T00:28:45.426Z,0
2018-11-12T00:29:46.222Z,0
2018-11-12T00:30:47.296Z,0
2018-11-12T00:31:48.090Z,0
2018-11-12T00:32:48.892Z,0
2018-11-12T00:33:49.797Z,0
2018-11-12T00:34:50.149Z,0
2018-11-12T00:35:50.392Z,0
2018-11-12T00:36:52.187Z,0
2018-11-12T00:37:52.538Z,0
2018-11-12T00:38:53.217Z,0
2018-11-12T00:39:54.021Z,0
2018-11-12T00:40:54.816Z,0
2018-11-12T00:41:54.887Z,0
2018-11-12T00:42:55.964Z,0
2018-11-12T00:43:57.318Z,0
2018-11-12T00:44:58.671Z,0
2018-11-12T00:45:59.319Z,0
2018-11-12T00:47:00.391Z,0
2018-11-12T00:48:01.019Z,0
2018-11-12T00:49:01.613Z,0
2018-11-12T00:50:02.983Z,0
2018-11-12T00:51:02.778Z,0
2018-11-12T00:52:03.297Z,0
2018-11-12T00:53:03.646Z,0
2018-11-12T00:54:05.555Z,0
2018-11-12T00:55:05.351Z,0
2018-11-12T00:56:05.590Z,0
2018-11-12T00:57:06.953Z,0
2018-11-12T00:58:08.028Z,0
2018-11-12T00:59:08.429Z,0
2018-11-12T01:00:09.781Z,0
2018-11-12T01:01:22.988Z,0
2018-11-12T01:02:24.387Z,0
2018-11-12T01:03:24.974Z,0
2018-11-12T01:04:25.222Z,0
2018-11-12T01:05:26.007Z,0
2018-11-12T01:06:27.523Z,0
2018-11-12T01:07:28.603Z,0
2018-11-12T01:08:29.681Z,0
2018-11-12T01:09:29.469Z,0
2018-11-12T01:10:29.985Z,0
2018-11-12T01:11:31.060Z,0
2018-11-12T01:12:31.931Z,0
2018-11-12T01:13:33.561Z,0
2018-11-12T01:14:34.083Z,0
2018-11-12T01:15:35.322Z,0
2018-11-12T01:16:35.841Z,0
2018-11-12T01:17:36.635Z,0
2018-11-12T01:18:37.430Z,0
2018-11-12T01:19:37.949Z,0
2018-11-12T01:20:39.469Z,0
2018-11-12T01:21:39.983Z,0
2018-11-12T01:22:41.670Z,0
2018-11-12T01:23:41.745Z,0
2018-11-12T01:24:42.820Z,0
2018-11-12T01:25:43.063Z,0
2018-11-12T01:26:44.420Z,0
2018-11-12T01:27:45.073Z,0
2018-11-12T01:28:46.122Z,0
2018-11-12T01:29:46.915Z,0
2018-11-12T01:30:47.986Z,0
2018-11-12T01:31:49.060Z,0
2018-11-12T01:32:48.904Z,0
2018-11-12T01:33:50.529Z,0
2018-11-12T01:34:50.326Z,0
2018-11-12T01:35:50.846Z,0
2018-11-12T01:36:52.086Z,0
2018-11-12T01:37:53.158Z,0
2018-11-12T01:38:53.957Z,0
2018-11-12T01:39:55.302Z,0
2018-11-12T01:40:56.374Z,0
2018-11-12T01:41:57.022Z,0
2018-11-12T01:42:57.239Z,0
2018-11-12T01:43:58.592Z,0
2018-11-12T01:44:59.388Z,0
2018-11-12T01:46:00.741Z,0
2018-11-12T01:47:01.259Z,0
2018-11-12T01:48:02.350Z,0
2018-11-12T01:49:03.699Z,0
2018-11-12T01:50:04.066Z,0
2018-11-12T01:51:04.876Z,0
2018-11-12T01:52:05.393Z,0
2018-11-12T01:53:07.074Z,0
2018-11-12T01:54:07.427Z,0
2018-11-12T01:55:07.947Z,0
2018-11-12T01:56:09.576Z,0
2018-11-12T01:57:09.930Z,0
2018-11-12T01:58:10.725Z,0
2018-11-12T01:59:11.526Z,0
2018-11-12T02:00:11.594Z,0
2018-11-12T02:01:12.118Z,0
2018-11-12T02:02:13.530Z,0
2018-11-12T02:03:13.814Z,0
2018-11-12T02:04:14.889Z,0
2018-11-12T02:05:15.801Z,0
2018-11-12T02:06:15.328Z,0
2018-11-12T02:07:16.400Z,0
2018-11-12T02:08:17.202Z,0
2018-11-12T02:09:18.600Z,0
2018-11-12T02:10:19.971Z,0
2018-11-12T02:11:19.806Z,0
2018-11-12T02:12:20.327Z,0
2018-11-12T02:13:21.721Z,0
2018-11-12T02:14:22.176Z,0
2018-11-12T02:15:23.186Z,0
2018-11-12T02:16:23.817Z,0
2018-11-12T02:17:23.615Z,0
2018-11-12T02:18:24.134Z,0
2018-11-12T02:19:25.653Z,0
2018-11-12T02:20:27.446Z,0
2018-11-12T02:21:27.684Z,0
2018-11-12T02:22:29.259Z,0
2018-11-12T02:23:30.353Z,0
2018-11-12T02:24:31.153Z,0
2018-11-12T02:25:31.227Z,0
2018-11-12T02:26:32.306Z,0
2018-11-12T02:27:32.663Z,0
2018-11-12T02:28:33.465Z,0
2018-11-12T02:29:35.179Z,0
2018-11-12T02:30:35.997Z,0
2018-11-12T02:31:36.795Z,0
2018-11-12T02:32:37.605Z,0
2018-11-12T02:33:38.789Z,0
2018-11-12T02:34:39.584Z,0
2018-11-12T02:35:39.937Z,0
2018-11-12T02:36:41.133Z,0
2018-11-12T02:37:41.490Z,0
2018-11-12T02:38:42.134Z,0
2018-11-12T02:39:43.327Z,0
2018-11-12T02:40:43.727Z,0
2018-11-12T02:41:44.083Z,0
2018-11-12T02:42:45.224Z,0
2018-11-12T02:43:45.998Z,0
2018-11-12T02:44:46.797Z,0
2018-11-12T02:45:47.601Z,0
2018-11-12T02:46:48.682Z,0
2018-11-12T02:47:50.610Z,0
2018-11-12T02:48:51.525Z,0
2018-11-12T02:49:52.434Z,0
2018-11-12T02:50:52.510Z,0
2018-11-12T02:51:53.590Z,0
2018-11-12T02:52:54.951Z,0
2018-11-12T02:53:55.905Z,0
2018-11-12T02:54:55.981Z,0
2018-11-12T02:55:56.618Z,0
2018-11-12T02:56:57.688Z,0
2018-11-12T02:57:59.047Z,0
2018-11-12T02:58:59.896Z,0
2018-11-12T03:00:01.290Z,0
2018-11-12T03:01:01.669Z,0
2018-11-12T03:02:02.746Z,0
2018-11-12T03:03:02.989Z,0
2018-11-12T03:04:03.830Z,0
2018-11-12T03:05:05.349Z,0
2018-11-12T03:06:05.714Z,0
2018-11-12T03:07:06.234Z,0
2018-11-12T03:08:07.317Z,0
2018-11-12T03:09:08.113Z,0
2018-11-12T03:10:10.032Z,0
2018-11-12T03:11:10.393Z,0
2018-11-12T03:12:11.470Z,0
2018-11-12T03:13:11.817Z,0
2018-11-12T03:14:12.789Z,0
2018-11-12T03:15:13.866Z,0
2018-11-12T03:16:13.945Z,0
2018-11-12T03:17:15.295Z,0
2018-11-12T03:18:16.092Z,0
2018-11-12T03:19:17.166Z,0
2018-11-12T03:20:17.239Z,0
2018-11-12T03:21:19.163Z,0
2018-11-12T03:22:19.544Z,0
2018-11-12T03:23:20.064Z,0
2018-11-12T03:24:21.494Z,0
2018-11-12T03:25:21.848Z,0
2018-11-12T03:26:22.484Z,0
2018-11-12T03:27:23.159Z,0
2018-11-12T03:28:23.859Z,0
2018-11-12T03:29:24.244Z,0
2018-11-12T03:30:25.627Z,0
2018-11-12T03:31:26.543Z,0
2018-11-12T03:32:27.191Z,0
2018-11-12T03:33:28.557Z,0
2018-11-12T03:34:29.243Z,0
2018-11-12T03:35:29.491Z,0
2018-11-12T03:36:31.122Z,0
2018-11-12T03:37:31.919Z,0
2018-11-12T03:38:32.716Z,0
2018-11-12T03:39:35.020Z,0
2018-11-12T03:40:36.064Z,0
2018-11-12T03:41:37.133Z,0
2018-11-12T03:42:37.211Z,0
2018-11-12T03:43:37.562Z,0
2018-11-12T03:44:38.541Z,0
2018-11-12T03:45:38.894Z,0
2018-11-12T03:46:38.968Z,0
2018-11-12T03:47:40.322Z,0
2018-11-12T03:48:41.399Z,0
2018-11-12T03:49:42.749Z,0
2018-11-12T03:50:43.043Z,0
2018-11-12T03:51:45.341Z,0
2018-11-12T03:52:46.004Z,0
2018-11-12T03:53:46.368Z,0
2018-11-12T03:54:46.765Z,0
2018-11-12T03:55:47.288Z,0
2018-11-12T03:56:48.085Z,0
2018-11-12T03:57:49.716Z,0
2018-11-12T03:58:50.637Z,0
2018-11-12T03:59:50.714Z,0
2018-11-12T04:00:53.076Z,0
2018-11-12T04:01:53.152Z,0
2018-11-12T04:02:54.507Z,0
2018-11-12T04:03:55.411Z,0
2018-11-12T04:04:56.089Z,0
2018-11-12T04:05:57.999Z,0
2018-11-12T04:06:58.352Z,0
2018-11-12T04:07:59.706Z,0
2018-11-12T04:08:59.498Z,0
2018-11-12T04:10:00.293Z,0
2018-11-12T04:11:00.815Z,0
2018-11-12T04:12:01.886Z,0
2018-11-12T04:13:02.523Z,0
2018-11-12T04:14:02.603Z,0
2018-11-12T04:15:03.495Z,0
2018-11-12T04:16:04.866Z,0
2018-11-12T04:17:04.937Z,0
2018-11-12T04:18:07.294Z,0
2018-11-12T04:19:08.481Z,0
2018-11-12T04:20:08.555Z,0
2018-11-12T04:21:09.076Z,0
2018-11-12T04:22:10.433Z,0
2018-11-12T04:23:11.229Z,0
2018-11-12T04:24:12.304Z,0
2018-11-12T04:25:13.007Z,0
2018-11-12T04:26:12.802Z,0
2018-11-12T04:27:13.597Z,0
2018-11-12T04:28:14.119Z,0
2018-11-12T04:29:14.468Z,0
2018-11-12T04:30:16.288Z,0
2018-11-12T04:31:17.640Z,0
2018-11-12T04:32:17.716Z,0
2018-11-12T04:33:18.792Z,0
2018-11-12T04:34:19.427Z,0
2018-11-12T04:35:19.715Z,0
2018-11-12T04:36:21.508Z,0
2018-11-12T04:37:22.695Z,0
2018-11-12T04:38:23.330Z,0
2018-11-12T04:39:24.417Z,0
2018-11-12T04:40:24.956Z,0
2018-11-12T04:41:26.029Z,0
2018-11-12T04:42:26.825Z,0
2018-11-12T04:43:28.626Z,0
2018-11-12T04:44:28.430Z,0
2018-11-12T04:45:30.136Z,0
2018-11-12T04:46:30.538Z,0
2018-11-12T04:47:31.624Z,0
2018-11-12T04:48:32.140Z,0
2018-11-12T04:49:34.214Z,0
2018-11-12T04:50:34.733Z,0
2018-11-12T04:51:35.536Z,0
2018-11-12T04:52:36.889Z,0
2018-11-12T04:53:38.537Z,0
2018-11-12T04:54:38.203Z,0
2018-11-12T04:55:39.719Z,0
2018-11-12T04:56:40.070Z,0
2018-11-12T04:57:41.706Z,0
2018-11-12T04:58:42.060Z,0
2018-11-12T04:59:43.769Z,0
2018-11-12T05:00:44.569Z,0
2018-11-12T05:01:47.307Z,0
2018-11-12T05:02:47.035Z,0
2018-11-12T05:03:48.388Z,4
2018-11-12T05:04:49.020Z,0
2018-11-12T05:05:49.446Z,0
2018-11-12T05:06:50.797Z,0
2018-11-12T05:07:51.432Z,0
2018-11-12T05:08:52.238Z,0
2018-11-12T05:09:53.586Z,0
2018-11-12T05:10:53.975Z,0
2018-11-12T05:11:55.607Z,0
2018-11-12T05:12:55.681Z,0
2018-11-12T05:13:56.767Z,0
2018-11-12T05:14:57.835Z,0
2018-11-12T05:15:59.237Z,0
2018-11-12T05:17:00.884Z,0
2018-11-12T05:18:02.239Z,0
2018-11-12T05:19:02.865Z,0
2018-11-12T05:20:03.526Z,0
2018-11-12T05:21:03.610Z,0
2018-11-12T05:22:03.960Z,0
2018-11-12T05:23:04.759Z,0
2018-11-12T05:24:06.835Z,0
2018-11-12T05:25:07.633Z,0
2018-11-12T05:26:08.062Z,0
2018-11-12T05:27:09.985Z,0
2018-11-12T05:28:11.169Z,0
2018-11-12T05:29:11.798Z,0
2018-11-12T05:30:12.430Z,0
2018-11-12T05:31:13.615Z,0
2018-11-12T05:32:12.856Z,0
2018-11-12T05:33:13.655Z,0
2018-11-12T05:34:15.020Z,0
2018-11-12T05:35:16.376Z,0
2018-11-12T05:36:17.223Z,0
2018-11-12T05:37:18.296Z,0
2018-11-12T05:38:19.712Z,0
2018-11-12T05:39:20.913Z,0
2018-11-12T05:40:21.989Z,4
2018-11-12T05:41:22.903Z,4
2018-11-12T05:42:23.699Z,0
2018-11-12T05:43:25.057Z,0
2018-11-12T05:44:26.140Z,4
2018-11-12T05:45:26.940Z,4
2018-11-12T05:46:28.072Z,4
2018-11-12T05:47:28.429Z,4
2018-11-12T05:48:29.502Z,4
2018-11-12T05:49:30.022Z,4
2018-11-12T05:50:31.550Z,8
2018-11-12T05:51:33.652Z,8
2018-11-12T05:52:33.271Z,8
2018-11-12T05:53:34.348Z,12
2018-11-12T05:54:35.140Z,16
2018-11-12T05:55:35.663Z,20
2018-11-12T05:56:36.524Z,24
2018-11-12T05:57:37.325Z,24
2018-11-12T05:58:38.125Z,32
2018-11-12T05:59:38.923Z,32
2018-11-12T06:00:39.445Z,36
2018-11-12T06:01:40.526Z,44
2018-11-12T06:02:41.054Z,52
2018-11-12T06:03:42.131Z,60
2018-11-12T06:04:44.029Z,68
2018-11-12T06:05:44.221Z,72
2018-11-12T06:06:45.073Z,84
2018-11-12T06:07:46.155Z,92
2018-11-12T06:08:45.953Z,104
2018-11-12T06:09:47.589Z,116
2018-11-12T06:10:47.674Z,128
2018-11-12T06:11:48.751Z,140
2018-11-12T06:12:50.383Z,156
2018-11-12T06:13:50.905Z,168
2018-11-12T06:14:52.434Z,188
2018-11-12T06:15:53.512Z,200
2018-11-12T06:16:53.638Z,216
2018-11-12T06:17:54.996Z,236
2018-11-12T06:18:56.078Z,256
2018-11-12T06:19:56.879Z,268
2018-11-12T06:20:57.403Z,292
2018-11-12T06:21:58.051Z,312
2018-11-12T06:22:59.135Z,332
2018-11-12T06:23:59.377Z,352
2018-11-12T06:25:00.897Z,372
2018-11-12T06:26:01.422Z,396
2018-11-12T06:27:02.007Z,416
2018-11-12T06:28:02.809Z,436
2018-11-12T06:29:04.607Z,460
2018-11-12T06:30:04.407Z,480
2018-11-12T06:31:07.529Z,504
2018-11-12T06:32:07.477Z,520
2018-11-12T06:33:08.553Z,544
2018-11-12T06:34:08.630Z,568
2018-11-12T06:35:09.431Z,584
2018-11-12T06:36:09.507Z,608
2018-11-12T06:37:09.798Z,628
2018-11-12T06:38:11.602Z,716
2018-11-12T06:39:12.121Z,760
2018-11-12T06:40:13.486Z,1012
2018-11-12T06:41:14.123Z,1140
2018-11-12T06:42:15.818Z,988
2018-11-12T06:43:17.182Z,880
2018-11-12T06:44:17.749Z,924
2018-11-12T06:45:18.554Z,1092
2018-11-12T06:46:18.559Z,1812
2018-11-12T06:47:19.228Z,2560
2018-11-12T06:48:20.027Z,2492
2018-11-12T06:49:21.056Z,2664
2018-11-12T06:50:22.133Z,3036
2018-11-12T06:51:22.678Z,2620
2018-11-12T06:52:24.319Z,1428
2018-11-12T06:53:26.221Z,1096
2018-11-12T06:54:26.488Z,1056
2018-11-12T06:55:26.519Z,1096
2018-11-12T06:56:27.041Z,1620
2018-11-12T06:57:28.410Z,4604
2018-11-12T06:58:28.676Z,11532
2018-11-12T06:59:29.393Z,17440
2018-11-12T07:00:30.735Z,10996
2018-11-12T07:01:31.138Z,2172
2018-11-12T07:02:31.719Z,1500
2018-11-12T07:03:32.259Z,1712
2018-11-12T07:04:32.872Z,2372
2018-11-12T07:05:33.661Z,4912
2018-11-12T07:06:35.601Z,7708
2018-11-12T07:07:35.551Z,5216
2018-11-12T07:08:36.352Z,2096
2018-11-12T07:09:37.865Z,5920
2018-11-12T07:10:38.668Z,31264
2018-11-12T07:11:40.036Z,43008
2018-11-12T07:12:40.839Z,24672
2018-11-12T07:13:41.477Z,9416
2018-11-12T07:14:42.838Z,13156
2018-11-12T07:15:43.646Z,32384
2018-11-12T07:16:44.419Z,41632
2018-11-12T07:17:45.110Z,41504
2018-11-12T07:18:45.906Z,39424
2018-11-12T07:19:47.085Z,30528
2018-11-12T07:20:48.508Z,21088
2018-11-12T07:21:49.595Z,13316
2018-11-12T07:22:49.681Z,7404
2018-11-12T07:23:50.152Z,6860
2018-11-12T07:24:51.803Z,7120
2018-11-12T07:25:52.062Z,7500
2018-11-12T07:26:52.869Z,7300
2018-11-12T07:27:54.017Z,6988
2018-11-12T07:28:54.102Z,7072
2018-11-12T07:29:56.019Z,6448
2018-11-12T07:30:57.883Z,5420
2018-11-12T07:31:58.143Z,6108
2018-11-12T07:32:58.232Z,6696
2018-11-12T07:33:58.623Z,6704
2018-11-12T07:34:59.160Z,6816
2018-11-12T07:36:00.249Z,7680
2018-11-12T07:37:01.073Z,7992
2018-11-12T07:38:01.765Z,8428
2018-11-12T07:39:02.581Z,8844
2018-11-12T07:40:03.947Z,9108
2018-11-12T07:41:04.484Z,8608
2018-11-12T07:42:07.714Z,8560
2018-11-12T07:43:07.154Z,8608
2018-11-12T07:44:07.254Z,9004
2018-11-12T07:45:08.903Z,16544
2018-11-12T07:46:09.841Z,30528
2018-11-12T07:47:10.378Z,43680
2018-11-12T07:48:11.721Z,53120
2018-11-12T07:49:12.368Z,57536
2018-11-12T07:50:13.184Z,49760
2018-11-12T07:51:14.730Z,46112
2018-11-12T07:52:13.735Z,48160
2018-11-12T07:53:15.001Z,49600
2018-11-12T07:54:16.531Z,55264
2018-11-12T07:55:18.034Z,55456
2018-11-12T07:56:19.888Z,58688
2018-11-12T07:57:20.415Z,52064
2018-11-12T07:58:21.561Z,47296
2018-11-12T07:59:22.381Z,47712
2018-11-12T08:00:23.745Z,29024
2018-11-12T08:01:23.558Z,6860
2018-11-12T08:02:24.755Z,3404
2018-11-12T08:03:26.264Z,3348
2018-11-12T08:04:26.713Z,3340
2018-11-12T08:05:27.522Z,3392
2018-11-12T08:06:27.892Z,6376
2018-11-12T08:07:28.423Z,9676
2018-11-12T08:08:29.332Z,14996
2018-11-12T08:09:31.713Z,24416
2018-11-12T08:10:31.606Z,26336
2018-11-12T08:11:31.449Z,24352
2018-11-12T08:12:32.828Z,28704
2018-11-12T08:13:32.987Z,28544
2018-11-12T08:14:34.759Z,33024
2018-11-12T08:15:35.069Z,37216
2018-11-12T08:16:35.879Z,31552
2018-11-12T08:17:38.943Z,36320
2018-11-12T08:18:38.433Z,43616
2018-11-12T08:19:39.298Z,46368
2018-11-12T08:20:40.110Z,25408
2018-11-12T08:21:43.467Z,36224
2018-11-12T08:22:43.265Z,30944
2018-11-12T08:23:43.914Z,16480
2018-11-12T08:24:46.037Z,25440
2018-11-12T08:25:44.666Z,30528
2018-11-12T08:26:45.925Z,19520
2018-11-12T08:27:47.691Z,3772
2018-11-12T08:28:48.104Z,3152
2018-11-12T08:29:49.807Z,3104
2018-11-12T08:30:49.093Z,3096
2018-11-12T08:31:50.180Z,4052
2018-11-12T08:32:52.257Z,9588
2018-11-12T08:33:52.369Z,8820
2018-11-12T08:34:53.028Z,4872
2018-11-12T08:35:53.393Z,2976
2018-11-12T08:36:53.489Z,3028
2018-11-12T08:37:54.595Z,7992
2018-11-12T08:38:54.922Z,18944
2018-11-12T08:39:57.499Z,29024
2018-11-12T08:40:58.083Z,17856
2018-11-12T08:41:57.867Z,18528
2018-11-12T08:42:58.397Z,18240
2018-11-12T08:43:58.933Z,17728
2018-11-12T08:44:59.742Z,14076
2018-11-12T08:46:02.218Z,8076
2018-11-12T08:47:01.469Z,5412
2018-11-12T08:48:02.661Z,7120
2018-11-12T08:49:03.823Z,6728
2018-11-12T08:50:04.438Z,8488
2018-11-12T08:51:04.689Z,17888
2018-11-12T08:52:06.289Z,26880
2018-11-12T08:53:07.178Z,18656
2018-11-12T08:54:06.991Z,10368
2018-11-12T08:55:08.706Z,12452
2018-11-12T08:56:08.581Z,8624
2018-11-12T08:57:09.091Z,5860
2018-11-12T08:58:14.359Z,15144
2018-11-12T08:58:23.822Z,16544
2018-11-12T08:59:25.175Z,21728
2018-11-12T09:00:25.253Z,25376
2018-11-12T09:01:26.506Z,13524
2018-11-12T09:02:27.433Z,4596
2018-11-12T09:03:28.105Z,6084
2018-11-12T09:04:30.294Z,15380
2018-11-12T09:05:30.040Z,21984
2018-11-12T09:06:30.413Z,24320
2018-11-12T09:07:31.223Z,25024
2018-11-12T09:08:32.036Z,23296
2018-11-12T09:09:32.902Z,28448
2018-11-12T09:10:34.837Z,41760
2018-11-12T09:11:34.651Z,45504
2018-11-12T09:12:36.022Z,43936
2018-11-12T09:13:36.878Z,32448
2018-11-12T09:14:38.132Z,29696
2018-11-12T09:15:41.500Z,19712
2018-11-12T09:16:40.964Z,16992
2018-11-12T09:17:42.167Z,20192
2018-11-12T09:18:43.143Z,24032
2018-11-12T09:19:44.559Z,30784
2018-11-12T09:20:44.651Z,37152
2018-11-12T09:21:45.472Z,36320
2018-11-12T09:22:46.155Z,43712
2018-11-12T09:23:46.690Z,45664
2018-11-12T09:24:48.599Z,40608
2018-11-12T09:25:48.416Z,36384
2018-11-12T09:26:49.415Z,28512
2018-11-12T09:27:49.509Z,25088
2018-11-12T09:28:50.042Z,26464
2018-11-12T09:29:51.799Z,30592
2018-11-12T09:31:00.618Z,23936
2018-11-12T09:31:31.954Z,18208
2018-11-12T09:32:29.848Z,17696
2018-11-12T09:33:31.291Z,31680
2018-11-12T09:34:31.481Z,41728
2018-11-12T09:35:32.013Z,36384
2018-11-12T09:36:34.969Z,39008
2018-11-12T09:38:35.689Z,56448
2018-11-12T09:39:36.207Z,49728
2018-11-12T09:40:37.744Z,58944
2018-11-12T09:41:37.281Z,50432
2018-11-12T09:42:38.702Z,51104
2018-11-12T09:43:39.792Z,44512
2018-11-12T09:44:42.251Z,32320
2018-11-12T09:45:43.007Z,21984
2018-11-12T09:46:43.125Z,22304
2018-11-12T09:47:44.566Z,20320
2018-11-12T09:48:44.727Z,20736
2018-11-12T09:49:44.847Z,23232
2018-11-12T09:50:46.504Z,26272
2018-11-12T09:51:46.609Z,28544
2018-11-12T09:52:48.330Z,32128
2018-11-12T09:53:50.232Z,32192
2018-11-12T09:54:50.144Z,33728
2018-11-12T09:55:50.800Z,28960
2018-11-12T09:56:53.671Z,34016
2018-11-12T09:57:55.431Z,40128
2018-11-12T09:58:56.056Z,35872
2018-11-12T09:59:56.661Z,43328
2018-11-12T10:01:01.119Z,41312
2018-11-12T10:01:11.501Z,41280
2018-11-12T10:02:13.772Z,44096
2018-11-12T10:03:16.020Z,55744
2018-11-12T10:04:16.058Z,57280
2018-11-12T10:04:44.167Z,56800
2018-11-12T10:04:56.289Z,56256
2018-11-12T10:05:19.458Z,56288
2018-11-12T10:05:32.688Z,55840
2018-11-12T10:06:08.304Z,54720
2018-11-12T10:06:20.539Z,55040
2018-11-12T10:06:31.970Z,55808
2018-11-12T10:07:25.488Z,56384
2018-11-12T10:07:37.347Z,56672
2018-11-12T10:10:39.504Z,61152
2018-11-12T10:11:50.533Z,60448
2018-11-12T10:14:04.290Z,58848
2018-11-12T10:15:39.259Z,57120
2018-11-12T10:18:22.208Z,58944
2018-11-12T10:19:18.701Z,58784
2018-11-12T10:20:19.667Z,59328
2018-11-12T10:21:20.661Z,57024
2018-11-12T10:22:21.483Z,58368
2018-11-12T10:23:22.090Z,56544
2018-11-12T10:24:22.916Z,55488
2018-11-12T10:25:25.553Z,54784
2018-11-12T10:26:25.095Z,54144
2018-11-12T10:27:25.938Z,52480
2018-11-12T10:28:26.758Z,52512
2018-11-12T10:29:27.305Z,55200
2018-11-12T10:30:28.187Z,54400
2018-11-12T10:31:29.290Z,54432
2018-11-12T10:32:29.663Z,53568
2018-11-12T10:33:30.762Z,47808
2018-11-12T10:34:31.860Z,41696
2018-11-12T10:35:32.871Z,35968
2018-11-12T10:36:33.281Z,29856
2018-11-12T10:37:34.373Z,26240
2018-11-12T10:38:36.049Z,25600
2018-11-12T10:39:37.153Z,26432
2018-11-12T10:40:37.398Z,31200
2018-11-12T10:41:39.055Z,30880
2018-11-12T10:42:39.691Z,30816
2018-11-12T10:43:40.876Z,33728
2018-11-12T10:44:43.656Z,31040
2018-11-12T10:45:43.630Z,26848
2018-11-12T10:46:44.009Z,24480
2018-11-12T10:47:45.633Z,25664
2018-11-12T10:48:45.772Z,29472
2018-11-12T10:49:47.309Z,34432
2018-11-12T10:51:15.843Z,24608
2018-11-12T10:52:15.494Z,20704
2018-11-12T10:53:20.249Z,18400
2018-11-12T10:53:31.324Z,18240
2018-11-12T10:53:55.989Z,18176
2018-11-12T10:54:10.393Z,18464
2018-11-12T10:54:21.760Z,19040
2018-11-12T10:54:31.651Z,19168
2018-11-12T10:54:43.340Z,18304
2018-11-12T10:55:43.641Z,18784
2018-11-12T10:56:43.225Z,17120
2018-11-12T10:57:46.818Z,15680
2018-11-12T10:58:45.544Z,17312
2018-11-12T10:59:46.159Z,18176
2018-11-12T11:00:47.382Z,23584
2018-11-12T11:01:48.561Z,28704
2018-11-12T11:02:49.572Z,31264
2018-11-12T11:03:50.982Z,33280
2018-11-12T11:04:50.982Z,36192
2018-11-12T11:05:51.594Z,35008
2018-11-12T11:06:52.143Z,20192
2018-11-12T11:07:53.249Z,20992
2018-11-12T11:08:54.618Z,32416
2018-11-12T11:09:55.482Z,33760
2018-11-12T11:10:56.031Z,31136
2018-11-12T11:11:56.848Z,28896
2018-11-12T11:12:57.779Z,20960
2018-11-12T11:13:58.040Z,7288
2018-11-12T11:14:59.302Z,15712
2018-11-12T11:16:00.728Z,27104
2018-11-12T11:17:01.106Z,24544
2018-11-12T11:18:02.489Z,19392
2018-11-12T11:19:03.031Z,10656
2018-11-12T11:20:03.573Z,5564
2018-11-12T11:21:05.185Z,6884
2018-11-12T11:22:06.100Z,13920
2018-11-12T11:23:06.776Z,19776
2018-11-12T11:24:07.039Z,23744
2018-11-12T11:25:08.621Z,26464
2018-11-12T11:26:09.540Z,19520
2018-11-12T11:27:10.081Z,9020
2018-11-12T11:28:11.852Z,10524
2018-11-12T11:29:12.249Z,21376
2018-11-12T11:30:12.510Z,20576
2018-11-12T11:31:13.610Z,17920
2018-11-12T11:32:14.712Z,22944
2018-11-12T11:33:15.803Z,23936
2018-11-12T11:34:16.496Z,24096
2018-11-12T11:35:17.610Z,23264
2018-11-12T11:36:17.501Z,20640
2018-11-12T11:37:18.045Z,20416
2018-11-12T11:38:18.883Z,20352
2018-11-12T11:39:20.144Z,18624
2018-11-12T11:40:22.390Z,13716
2018-11-12T11:41:22.431Z,17824
2018-11-12T11:42:23.524Z,23296
2018-11-12T11:43:24.068Z,23360
2018-11-12T11:44:24.737Z,22272
2018-11-12T11:45:25.280Z,17504
2018-11-12T11:46:26.790Z,11016
2018-11-12T11:47:29.195Z,7968
2018-11-12T11:48:29.081Z,10932
2018-11-12T11:49:30.734Z,14728
2018-11-12T11:50:32.591Z,14720
2018-11-12T11:51:31.738Z,9416
2018-11-12T11:52:32.555Z,8408
2018-11-12T11:53:33.930Z,10876
2018-11-12T11:54:35.313Z,10976
2018-11-12T11:55:35.506Z,11712
2018-11-12T11:56:37.363Z,13104
2018-11-12T11:57:37.837Z,12476
2018-11-12T11:58:38.160Z,12352
2018-11-12T11:59:38.262Z,12584
2018-11-12T12:00:39.079Z,13828
2018-11-12T12:01:40.919Z,12208
2018-11-12T12:02:42.371Z,9476
2018-11-12T12:03:43.139Z,8876
2018-11-12T12:04:44.617Z,11020
2018-11-12T12:05:44.691Z,12868
2018-11-12T12:06:45.393Z,12532
2018-11-12T12:07:45.630Z,11860
2018-11-12T12:08:45.926Z,12544
2018-11-12T12:09:46.657Z,13036
2018-11-12T12:10:47.195Z,12328
2018-11-12T12:11:48.020Z,11976
2018-11-12T12:12:49.561Z,11184
2018-11-12T12:13:50.656Z,10108
2018-11-12T12:14:51.373Z,9016
2018-11-12T12:15:52.208Z,7932
2018-11-12T12:16:52.515Z,7300
2018-11-12T12:17:54.213Z,7004
2018-11-12T12:18:54.399Z,6848
2018-11-12T12:19:55.868Z,6848
2018-11-12T12:20:56.339Z,6948
2018-11-12T12:21:57.636Z,7100
2018-11-12T12:22:57.737Z,7416
2018-11-12T12:23:58.944Z,7552
2018-11-12T12:25:01.171Z,7496
2018-11-12T12:26:03.817Z,7104
2018-11-12T12:27:02.606Z,7020
2018-11-12T12:28:04.419Z,7324
2018-11-12T12:29:05.510Z,7412
2018-11-12T12:30:05.890Z,7400
2018-11-12T12:31:06.704Z,7388
2018-11-12T12:32:08.299Z,7384
2018-11-12T12:33:09.574Z,7456
2018-11-12T12:34:10.161Z,7560
2018-11-12T12:35:10.134Z,7568
2018-11-12T12:36:13.649Z,7332
2018-11-12T12:37:11.999Z,7052
2018-11-12T12:38:13.375Z,6920
2018-11-12T12:39:15.025Z,6868
2018-11-12T12:40:14.842Z,6640
2018-11-12T12:41:15.951Z,6556
2018-11-12T12:42:17.045Z,6900
2018-11-12T12:43:18.135Z,7160
2018-11-12T12:44:20.238Z,7092
2018-11-12T12:45:19.633Z,7352
2018-11-12T12:46:20.344Z,7548
2018-11-12T12:47:21.207Z,7596
2018-11-12T12:48:21.580Z,7664
2018-11-12T12:49:23.722Z,7520
2018-11-12T12:50:29.171Z,7564
2018-11-12T12:50:38.203Z,7584
2018-11-12T12:51:38.670Z,7676
2018-11-12T12:52:38.456Z,7680
2018-11-12T12:53:39.316Z,5516
2018-11-12T12:54:39.851Z,8000
2018-11-12T12:55:41.762Z,7808
2018-11-12T12:56:41.696Z,8060
2018-11-12T12:57:42.499Z,8048
2018-11-12T12:58:43.257Z,8064
2018-11-12T12:59:44.771Z,7956
2018-11-12T13:00:45.277Z,7748
2018-11-12T13:01:47.629Z,7816
2018-11-12T13:02:47.796Z,8080
2018-11-12T13:03:47.619Z,8172
2018-11-12T13:04:54.367Z,8220
2018-11-12T13:05:02.288Z,8228
2018-11-12T13:06:03.104Z,8216
2018-11-12T13:07:03.194Z,8148
2018-11-12T13:08:04.013Z,8080
2018-11-12T13:09:10.770Z,8056
2018-11-12T13:09:21.900Z,8056
2018-11-12T13:09:31.441Z,8052
2018-11-12T13:10:34.556Z,8044
2018-11-12T13:10:42.470Z,8044
2018-11-12T13:11:43.684Z,8056
2018-11-12T13:12:43.777Z,8120
2018-11-12T13:13:44.693Z,7512
2018-11-12T13:14:46.544Z,8208
2018-11-12T13:15:46.480Z,8344
2018-11-12T13:16:47.028Z,4788
2018-11-12T13:17:48.713Z,7448
2018-11-12T13:18:49.249Z,7872
2018-11-12T13:19:52.915Z,7948
2018-11-12T13:20:02.381Z,7960
2018-11-12T13:21:03.936Z,7984
2018-11-12T13:22:04.926Z,7992
2018-11-12T13:23:06.574Z,7924
2018-11-12T13:24:06.666Z,7856
2018-11-12T13:25:07.761Z,7704
2018-11-12T13:26:07.857Z,7612
2018-11-12T13:27:08.676Z,7488
2018-11-12T13:28:09.767Z,7308
2018-11-12T13:29:10.136Z,7116
2018-11-12T13:30:10.675Z,7016
2018-11-12T13:31:11.260Z,7200
2018-11-12T13:32:12.132Z,7260
2018-11-12T13:33:12.778Z,7240
2018-11-12T13:34:13.923Z,7176
2018-11-12T13:35:14.735Z,7112
2018-11-12T13:36:16.561Z,6964
2018-11-12T13:37:16.939Z,6828
2018-11-12T13:38:19.384Z,6832
2018-11-12T13:39:20.373Z,6812
2018-11-12T13:40:21.201Z,6748
2018-11-12T13:41:21.862Z,6596
2018-11-12T13:42:22.685Z,6372
2018-11-12T13:43:24.054Z,6336
2018-11-12T13:44:24.873Z,6504
2018-11-12T13:45:25.969Z,6616
2018-11-12T13:46:27.628Z,6596
2018-11-12T13:47:28.014Z,6672
2018-11-12T13:48:29.114Z,6732
2018-11-12T13:49:29.936Z,6744